sensor_id;sensor_type;location;lat;lon;timestamp;temperature;humidity
30134;DHT22;16946;49.984;10.672;2023-05-23T00:00:26;18.00;99.90
30134;DHT22;16946;49.984;10.672;2023-05-23T00:00:58;17.90;99.90
30134;DHT22;16946;49.984;10.672;2023-05-23T00:01:29;18.00;99.90
30134;DHT22;16946;49.984;10.672;2023-05-23T00:02:02;18.00;99.90
30134;DHT22;16946;49.984;10.672;2023-05-23T00:02:37;18.00;99.90
30134;DHT22;16946;49.984;10.672;2023-05-23T00:03:08;18.10;99.90
30134;DHT22;16946;49.984;10.672;2023-05-23T00:03:40;18.10;99.90
30134;DHT22;16946;49.984;10.672;2023-05-23T00:04:11;18.00;99.90
30134;DHT22;16946;49.984;10.672;2023-05-23T00:04:46;18.00;99.90
30134;DHT22;16946;49.984;10.672;2023-05-23T00:05:17;18.00;99.90
30134;DHT22;16946;49.984;10.672;2023-05-23T00:05:48;18.00;99.90
30134;DHT22;16946;49.984;10.672;2023-05-23T00:06:19;18.00;99.90
30134;DHT22;16946;49.984;10.672;2023-05-23T00:06:50;17.90;99.90
30134;DHT22;16946;49.984;10.672;2023-05-23T00:07:21;17.90;99.90
30134;DHT22;16946;49.984;10.672;2023-05-23T00:07:51;17.90;99.90
30134;DHT22;16946;49.984;10.672;2023-05-23T00:08:22;17.90;99.90
30134;DHT22;16946;49.984;10.672;2023-05-23T00:08:53;17.80;99.90
30134;DHT22;16946;49.984;10.672;2023-05-23T00:09:23;17.90;99.90
30134;DHT22;16946;49.984;10.672;2023-05-23T00:09:54;17.90;99.90
30134;DHT22;16946;49.984;10.672;2023-05-23T00:10:24;17.90;99.90
30134;DHT22;16946;49.984;10.672;2023-05-23T00:10:55;17.90;99.90
30134;DHT22;16946;49.984;10.672;2023-05-23T00:11:25;17.90;99.90
30134;DHT22;16946;49.984;10.672;2023-05-23T00:11:56;17.90;99.90
30134;DHT22;16946;49.984;10.672;2023-05-23T00:12:27;17.90;99.90
30134;DHT22;16946;49.984;10.672;2023-05-23T00:12:58;18.00;99.90
30134;DHT22;16946;49.984;10.672;2023-05-23T00:13:29;18.00;99.90
30134;DHT22;16946;49.984;10.672;2023-05-23T00:14:02;18.00;99.90
30134;DHT22;16946;49.984;10.672;2023-05-23T00:14:33;18.00;99.90
30134;DHT22;16946;49.984;10.672;2023-05-23T00:15:05;18.00;99.90
30134;DHT22;16946;49.984;10.672;2023-05-23T00:15:40;18.00;99.90
30134;DHT22;16946;49.984;10.672;2023-05-23T00:16:10;18.10;99.90
30134;DHT22;16946;49.984;10.672;2023-05-23T00:16:42;18.10;99.90
30134;DHT22;16946;49.984;10.672;2023-05-23T00:17:14;18.10;99.90
30134;DHT22;16946;49.984;10.672;2023-05-23T00:17:46;18.10;99.90
30134;DHT22;16946;49.984;10.672;2023-05-23T00:18:17;18.10;99.90
30134;DHT22;16946;49.984;10.672;2023-05-23T00:18:48;18.10;99.90
30134;DHT22;16946;49.984;10.672;2023-05-23T00:19:19;18.10;99.90
30134;DHT22;16946;49.984;10.672;2023-05-23T00:19:50;18.10;99.90
30134;DHT22;16946;49.984;10.672;2023-05-23T00:20:20;18.10;99.90
30134;DHT22;16946;49.984;10.672;2023-05-23T00:20:52;18.10;99.90
30134;DHT22;16946;49.984;10.672;2023-05-23T00:21:23;18.10;99.90
30134;DHT22;16946;49.984;10.672;2023-05-23T00:21:53;18.10;99.90
30134;DHT22;16946;49.984;10.672;2023-05-23T00:22:27;18.10;99.90
30134;DHT22;16946;49.984;10.672;2023-05-23T00:22:58;18.00;99.90
30134;DHT22;16946;49.984;10.672;2023-05-23T00:23:28;17.90;99.90
30134;DHT22;16946;49.984;10.672;2023-05-23T00:23:59;18.00;99.90
30134;DHT22;16946;49.984;10.672;2023-05-23T00:24:31;18.00;99.90
30134;DHT22;16946;49.984;10.672;2023-05-23T00:25:02;18.00;99.90
30134;DHT22;16946;49.984;10.672;2023-05-23T00:25:32;18.00;99.90
30134;DHT22;16946;49.984;10.672;2023-05-23T00:26:03;18.00;99.90
30134;DHT22;16946;49.984;10.672;2023-05-23T00:26:34;18.00;99.90
30134;DHT22;16946;49.984;10.672;2023-05-23T00:27:04;18.00;99.90
30134;DHT22;16946;49.984;10.672;2023-05-23T00:27:35;18.00;99.90
30134;DHT22;16946;49.984;10.672;2023-05-23T00:28:06;17.90;99.90
30134;DHT22;16946;49.984;10.672;2023-05-23T00:28:37;17.90;99.90
30134;DHT22;16946;49.984;10.672;2023-05-23T00:29:07;17.90;99.90
30134;DHT22;16946;49.984;10.672;2023-05-23T00:29:44;17.80;99.90
30134;DHT22;16946;49.984;10.672;2023-05-23T00:30:15;17.80;99.90
30134;DHT22;16946;49.984;10.672;2023-05-23T00:30:47;17.90;99.90
30134;DHT22;16946;49.984;10.672;2023-05-23T00:31:20;17.80;99.90
30134;DHT22;16946;49.984;10.672;2023-05-23T00:31:51;17.80;99.90
30134;DHT22;16946;49.984;10.672;2023-05-23T00:32:22;17.80;99.90
30134;DHT22;16946;49.984;10.672;2023-05-23T00:32:54;17.80;99.90
30134;DHT22;16946;49.984;10.672;2023-05-23T00:33:24;17.80;99.90
30134;DHT22;16946;49.984;10.672;2023-05-23T00:33:55;17.80;99.90
30134;DHT22;16946;49.984;10.672;2023-05-23T00:34:25;17.80;99.90
30134;DHT22;16946;49.984;10.672;2023-05-23T00:34:56;17.80;99.90
30134;DHT22;16946;49.984;10.672;2023-05-23T00:35:26;17.80;99.90
30134;DHT22;16946;49.984;10.672;2023-05-23T00:35:57;17.80;99.90
30134;DHT22;16946;49.984;10.672;2023-05-23T00:36:28;17.80;99.90
30134;DHT22;16946;49.984;10.672;2023-05-23T00:36:58;17.90;99.90
30134;DHT22;16946;49.984;10.672;2023-05-23T00:37:31;17.90;99.90
30134;DHT22;16946;49.984;10.672;2023-05-23T00:38:03;18.00;99.90
30134;DHT22;16946;49.984;10.672;2023-05-23T00:38:34;18.00;99.90
30134;DHT22;16946;49.984;10.672;2023-05-23T00:39:04;18.00;99.90
30134;DHT22;16946;49.984;10.672;2023-05-23T00:39:35;18.00;99.90
30134;DHT22;16946;49.984;10.672;2023-05-23T00:40:06;18.00;99.90
30134;DHT22;16946;49.984;10.672;2023-05-23T00:40:37;18.10;99.90
30134;DHT22;16946;49.984;10.672;2023-05-23T00:41:08;18.10;99.90
30134;DHT22;16946;49.984;10.672;2023-05-23T00:41:38;18.20;99.90
30134;DHT22;16946;49.984;10.672;2023-05-23T00:42:09;18.20;99.90
30134;DHT22;16946;49.984;10.672;2023-05-23T00:42:39;18.30;99.90
30134;DHT22;16946;49.984;10.672;2023-05-23T00:43:10;18.30;99.90
30134;DHT22;16946;49.984;10.672;2023-05-23T00:43:41;18.30;99.90
30134;DHT22;16946;49.984;10.672;2023-05-23T00:44:12;18.40;99.90
30134;DHT22;16946;49.984;10.672;2023-05-23T00:44:42;18.40;99.90
30134;DHT22;16946;49.984;10.672;2023-05-23T00:45:13;18.40;99.60
30134;DHT22;16946;49.984;10.672;2023-05-23T00:45:44;18.40;98.10
30134;DHT22;16946;49.984;10.672;2023-05-23T00:46:15;18.40;96.70
30134;DHT22;16946;49.984;10.672;2023-05-23T00:46:50;18.40;96.10
30134;DHT22;16946;49.984;10.672;2023-05-23T00:47:20;18.40;98.30
30134;DHT22;16946;49.984;10.672;2023-05-23T00:47:51;18.30;98.40
30134;DHT22;16946;49.984;10.672;2023-05-23T00:48:24;18.40;98.90
30134;DHT22;16946;49.984;10.672;2023-05-23T00:48:55;18.30;99.90
30134;DHT22;16946;49.984;10.672;2023-05-23T00:49:25;18.30;99.90
30134;DHT22;16946;49.984;10.672;2023-05-23T00:49:57;18.30;99.90
30134;DHT22;16946;49.984;10.672;2023-05-23T00:50:28;18.20;99.90
30134;DHT22;16946;49.984;10.672;2023-05-23T00:50:59;18.20;99.90
30134;DHT22;16946;49.984;10.672;2023-05-23T00:51:30;18.10;99.90
30134;DHT22;16946;49.984;10.672;2023-05-23T00:52:01;18.10;99.90
30134;DHT22;16946;49.984;10.672;2023-05-23T00:52:33;18.10;99.90
30134;DHT22;16946;49.984;10.672;2023-05-23T00:53:03;18.00;99.90
30134;DHT22;16946;49.984;10.672;2023-05-23T00:53:34;18.00;99.90
30134;DHT22;16946;49.984;10.672;2023-05-23T00:54:05;18.00;99.90
30134;DHT22;16946;49.984;10.672;2023-05-23T00:54:36;18.00;99.90
30134;DHT22;16946;49.984;10.672;2023-05-23T00:55:08;18.00;99.90
30134;DHT22;16946;49.984;10.672;2023-05-23T00:55:39;17.90;99.90
30134;DHT22;16946;49.984;10.672;2023-05-23T00:56:10;17.90;99.90
30134;DHT22;16946;49.984;10.672;2023-05-23T00:56:42;17.90;99.90
30134;DHT22;16946;49.984;10.672;2023-05-23T00:57:13;17.90;99.90
30134;DHT22;16946;49.984;10.672;2023-05-23T00:57:44;17.90;99.90
30134;DHT22;16946;49.984;10.672;2023-05-23T00:58:14;17.90;99.90
30134;DHT22;16946;49.984;10.672;2023-05-23T00:58:46;17.90;99.90
30134;DHT22;16946;49.984;10.672;2023-05-23T00:59:17;17.90;99.90
30134;DHT22;16946;49.984;10.672;2023-05-23T00:59:50;17.90;99.90
30134;DHT22;16946;49.984;10.672;2023-05-23T01:00:23;17.90;99.90
30134;DHT22;16946;49.984;10.672;2023-05-23T01:00:54;18.00;99.90
30134;DHT22;16946;49.984;10.672;2023-05-23T01:01:25;18.00;99.90
30134;DHT22;16946;49.984;10.672;2023-05-23T01:01:57;17.90;99.90
30134;DHT22;16946;49.984;10.672;2023-05-23T01:02:29;17.90;99.90
30134;DHT22;16946;49.984;10.672;2023-05-23T01:03:01;17.90;99.90
30134;DHT22;16946;49.984;10.672;2023-05-23T01:03:32;17.90;99.90
30134;DHT22;16946;49.984;10.672;2023-05-23T01:04:03;17.90;99.90
30134;DHT22;16946;49.984;10.672;2023-05-23T01:04:34;17.90;99.90
30134;DHT22;16946;49.984;10.672;2023-05-23T01:05:05;17.80;99.90
30134;DHT22;16946;49.984;10.672;2023-05-23T01:05:36;17.80;99.90
30134;DHT22;16946;49.984;10.672;2023-05-23T01:06:06;17.80;99.90
30134;DHT22;16946;49.984;10.672;2023-05-23T01:06:38;17.80;99.90
30134;DHT22;16946;49.984;10.672;2023-05-23T01:07:09;17.80;99.90
30134;DHT22;16946;49.984;10.672;2023-05-23T01:07:40;17.80;99.90
30134;DHT22;16946;49.984;10.672;2023-05-23T01:08:11;17.80;99.90
30134;DHT22;16946;49.984;10.672;2023-05-23T01:08:41;17.80;99.90
30134;DHT22;16946;49.984;10.672;2023-05-23T01:09:15;17.80;99.90
30134;DHT22;16946;49.984;10.672;2023-05-23T01:09:47;17.70;99.90
30134;DHT22;16946;49.984;10.672;2023-05-23T01:10:20;17.70;99.90
30134;DHT22;16946;49.984;10.672;2023-05-23T01:10:52;17.70;99.90
30134;DHT22;16946;49.984;10.672;2023-05-23T01:11:30;17.80;99.90
30134;DHT22;16946;49.984;10.672;2023-05-23T01:12:24;17.70;99.90
30134;DHT22;16946;49.984;10.672;2023-05-23T01:14:06;17.90;99.90
30134;DHT22;16946;49.984;10.672;2023-05-23T01:14:53;18.00;99.90
30134;DHT22;16946;49.984;10.672;2023-05-23T01:16:16;18.10;99.90
30134;DHT22;16946;49.984;10.672;2023-05-23T01:16:54;18.00;99.90
30134;DHT22;16946;49.984;10.672;2023-05-23T01:18:39;17.90;99.90
30134;DHT22;16946;49.984;10.672;2023-05-23T01:20:08;17.90;99.90
30134;DHT22;16946;49.984;10.672;2023-05-23T01:20:54;17.80;99.90
30134;DHT22;16946;49.984;10.672;2023-05-23T01:21:26;17.80;99.90
30134;DHT22;16946;49.984;10.672;2023-05-23T01:21:59;17.70;99.90
30134;DHT22;16946;49.984;10.672;2023-05-23T01:24:02;17.60;99.90
30134;DHT22;16946;49.984;10.672;2023-05-23T01:25:53;17.40;99.90
30134;DHT22;16946;49.984;10.672;2023-05-23T01:27:07;17.40;99.90
30134;DHT22;16946;49.984;10.672;2023-05-23T01:27:52;17.50;99.90
30134;DHT22;16946;49.984;10.672;2023-05-23T01:28:31;17.50;99.90
30134;DHT22;16946;49.984;10.672;2023-05-23T01:29:42;17.40;99.90
30134;DHT22;16946;49.984;10.672;2023-05-23T01:30:17;17.50;99.90
30134;DHT22;16946;49.984;10.672;2023-05-23T01:30:51;17.50;99.90
30134;DHT22;16946;49.984;10.672;2023-05-23T01:31:23;17.50;99.90
30134;DHT22;16946;49.984;10.672;2023-05-23T01:31:58;17.50;99.90
30134;DHT22;16946;49.984;10.672;2023-05-23T01:32:31;17.50;99.90
30134;DHT22;16946;49.984;10.672;2023-05-23T01:33:02;17.50;99.90
30134;DHT22;16946;49.984;10.672;2023-05-23T01:33:34;17.50;99.90
30134;DHT22;16946;49.984;10.672;2023-05-23T01:34:06;17.40;99.90
30134;DHT22;16946;49.984;10.672;2023-05-23T01:34:38;17.40;99.90
30134;DHT22;16946;49.984;10.672;2023-05-23T01:35:09;17.40;99.90
30134;DHT22;16946;49.984;10.672;2023-05-23T01:35:42;17.40;99.90
30134;DHT22;16946;49.984;10.672;2023-05-23T01:36:13;17.50;99.90
30134;DHT22;16946;49.984;10.672;2023-05-23T01:36:44;17.50;99.90
30134;DHT22;16946;49.984;10.672;2023-05-23T01:37:15;17.50;99.90
30134;DHT22;16946;49.984;10.672;2023-05-23T01:37:48;17.50;99.90
30134;DHT22;16946;49.984;10.672;2023-05-23T01:38:19;17.50;99.90
30134;DHT22;16946;49.984;10.672;2023-05-23T01:38:49;17.50;99.90
30134;DHT22;16946;49.984;10.672;2023-05-23T01:39:21;17.60;99.90
30134;DHT22;16946;49.984;10.672;2023-05-23T01:39:51;17.50;99.90
30134;DHT22;16946;49.984;10.672;2023-05-23T01:40:23;17.50;99.90
30134;DHT22;16946;49.984;10.672;2023-05-23T01:40:53;17.50;99.90
30134;DHT22;16946;49.984;10.672;2023-05-23T01:41:24;17.40;99.90
30134;DHT22;16946;49.984;10.672;2023-05-23T01:41:55;17.30;99.90
30134;DHT22;16946;49.984;10.672;2023-05-23T01:42:25;17.30;99.90
30134;DHT22;16946;49.984;10.672;2023-05-23T01:42:57;17.30;99.90
30134;DHT22;16946;49.984;10.672;2023-05-23T01:43:28;17.30;99.90
30134;DHT22;16946;49.984;10.672;2023-05-23T01:43:59;17.30;99.90
30134;DHT22;16946;49.984;10.672;2023-05-23T01:44:30;17.30;99.90
30134;DHT22;16946;49.984;10.672;2023-05-23T01:45:01;17.30;99.90
30134;DHT22;16946;49.984;10.672;2023-05-23T01:45:32;17.30;99.90
30134;DHT22;16946;49.984;10.672;2023-05-23T01:46:05;17.30;99.90
30134;DHT22;16946;49.984;10.672;2023-05-23T01:46:37;17.30;99.90
30134;DHT22;16946;49.984;10.672;2023-05-23T01:47:09;17.30;99.90
30134;DHT22;16946;49.984;10.672;2023-05-23T01:47:40;17.30;99.90
30134;DHT22;16946;49.984;10.672;2023-05-23T01:48:12;17.30;99.90
30134;DHT22;16946;49.984;10.672;2023-05-23T01:48:45;17.40;99.90
30134;DHT22;16946;49.984;10.672;2023-05-23T01:49:17;17.30;99.90
30134;DHT22;16946;49.984;10.672;2023-05-23T01:49:48;17.30;99.90
30134;DHT22;16946;49.984;10.672;2023-05-23T01:50:19;17.30;99.90
30134;DHT22;16946;49.984;10.672;2023-05-23T01:50:50;17.30;99.90
30134;DHT22;16946;49.984;10.672;2023-05-23T01:51:21;17.30;99.90
30134;DHT22;16946;49.984;10.672;2023-05-23T01:51:52;17.30;99.90
30134;DHT22;16946;49.984;10.672;2023-05-23T01:52:23;17.30;99.90
30134;DHT22;16946;49.984;10.672;2023-05-23T01:52:54;17.40;99.90
30134;DHT22;16946;49.984;10.672;2023-05-23T01:53:26;17.40;99.90
30134;DHT22;16946;49.984;10.672;2023-05-23T01:53:58;17.50;99.90
30134;DHT22;16946;49.984;10.672;2023-05-23T01:54:29;17.50;99.90
30134;DHT22;16946;49.984;10.672;2023-05-23T01:55:04;17.50;99.90
30134;DHT22;16946;49.984;10.672;2023-05-23T01:55:40;17.60;99.90
30134;DHT22;16946;49.984;10.672;2023-05-23T01:56:10;17.60;99.90
30134;DHT22;16946;49.984;10.672;2023-05-23T01:56:42;17.60;99.90
30134;DHT22;16946;49.984;10.672;2023-05-23T01:57:13;17.70;99.90
30134;DHT22;16946;49.984;10.672;2023-05-23T01:57:45;17.60;99.90
30134;DHT22;16946;49.984;10.672;2023-05-23T01:58:18;17.60;99.90
30134;DHT22;16946;49.984;10.672;2023-05-23T01:58:50;17.60;99.90
30134;DHT22;16946;49.984;10.672;2023-05-23T01:59:20;17.70;99.90
30134;DHT22;16946;49.984;10.672;2023-05-23T01:59:51;17.70;99.90
30134;DHT22;16946;49.984;10.672;2023-05-23T02:00:22;17.70;99.90
30134;DHT22;16946;49.984;10.672;2023-05-23T02:00:52;17.70;99.90
30134;DHT22;16946;49.984;10.672;2023-05-23T02:01:23;17.70;99.90
30134;DHT22;16946;49.984;10.672;2023-05-23T02:01:54;17.70;99.90
30134;DHT22;16946;49.984;10.672;2023-05-23T02:02:24;17.70;99.90
30134;DHT22;16946;49.984;10.672;2023-05-23T02:02:55;17.60;99.90
30134;DHT22;16946;49.984;10.672;2023-05-23T02:03:25;17.60;99.90
30134;DHT22;16946;49.984;10.672;2023-05-23T02:03:56;17.60;99.90
30134;DHT22;16946;49.984;10.672;2023-05-23T02:04:29;17.60;99.90
30134;DHT22;16946;49.984;10.672;2023-05-23T02:05:00;17.70;99.90
30134;DHT22;16946;49.984;10.672;2023-05-23T02:05:31;17.60;99.90
30134;DHT22;16946;49.984;10.672;2023-05-23T02:06:01;17.70;99.90
30134;DHT22;16946;49.984;10.672;2023-05-23T02:06:32;17.70;99.90
30134;DHT22;16946;49.984;10.672;2023-05-23T02:07:02;17.70;99.90
30134;DHT22;16946;49.984;10.672;2023-05-23T02:07:33;17.70;99.90
30134;DHT22;16946;49.984;10.672;2023-05-23T02:08:03;17.70;99.90
30134;DHT22;16946;49.984;10.672;2023-05-23T02:08:34;17.70;99.90
30134;DHT22;16946;49.984;10.672;2023-05-23T02:09:04;17.70;99.90
30134;DHT22;16946;49.984;10.672;2023-05-23T02:09:35;17.60;99.90
30134;DHT22;16946;49.984;10.672;2023-05-23T02:10:07;17.60;99.90
30134;DHT22;16946;49.984;10.672;2023-05-23T02:10:38;17.60;99.90
30134;DHT22;16946;49.984;10.672;2023-05-23T02:11:09;17.60;99.90
30134;DHT22;16946;49.984;10.672;2023-05-23T02:11:40;17.50;99.90
30134;DHT22;16946;49.984;10.672;2023-05-23T02:12:10;17.50;99.90
30134;DHT22;16946;49.984;10.672;2023-05-23T02:12:41;17.50;99.90
30134;DHT22;16946;49.984;10.672;2023-05-23T02:13:11;17.50;99.90
30134;DHT22;16946;49.984;10.672;2023-05-23T02:13:42;17.50;99.90
30134;DHT22;16946;49.984;10.672;2023-05-23T02:14:12;17.50;99.90
30134;DHT22;16946;49.984;10.672;2023-05-23T02:14:43;17.40;99.90
30134;DHT22;16946;49.984;10.672;2023-05-23T02:15:14;17.40;99.90
30134;DHT22;16946;49.984;10.672;2023-05-23T02:15:44;17.40;99.90
30134;DHT22;16946;49.984;10.672;2023-05-23T02:16:15;17.40;99.90
30134;DHT22;16946;49.984;10.672;2023-05-23T02:16:45;17.50;99.90
30134;DHT22;16946;49.984;10.672;2023-05-23T02:17:16;17.40;99.90
30134;DHT22;16946;49.984;10.672;2023-05-23T02:17:47;17.40;99.90
30134;DHT22;16946;49.984;10.672;2023-05-23T02:18:18;17.40;99.90
30134;DHT22;16946;49.984;10.672;2023-05-23T02:18:49;17.40;99.90
30134;DHT22;16946;49.984;10.672;2023-05-23T02:19:22;17.20;99.90
30134;DHT22;16946;49.984;10.672;2023-05-23T02:19:52;17.10;99.90
30134;DHT22;16946;49.984;10.672;2023-05-23T02:20:23;17.00;99.90
30134;DHT22;16946;49.984;10.672;2023-05-23T02:20:54;17.00;99.90
30134;DHT22;16946;49.984;10.672;2023-05-23T02:21:25;16.90;99.90
30134;DHT22;16946;49.984;10.672;2023-05-23T02:21:56;16.90;99.90
30134;DHT22;16946;49.984;10.672;2023-05-23T02:22:26;16.80;99.90
30134;DHT22;16946;49.984;10.672;2023-05-23T02:22:57;16.70;99.90
30134;DHT22;16946;49.984;10.672;2023-05-23T02:23:27;16.70;99.90
30134;DHT22;16946;49.984;10.672;2023-05-23T02:23:57;16.70;99.90
30134;DHT22;16946;49.984;10.672;2023-05-23T02:24:28;16.70;99.90
30134;DHT22;16946;49.984;10.672;2023-05-23T02:24:59;16.70;99.90
30134;DHT22;16946;49.984;10.672;2023-05-23T02:25:29;16.60;99.90
30134;DHT22;16946;49.984;10.672;2023-05-23T02:26:00;16.60;99.90
30134;DHT22;16946;49.984;10.672;2023-05-23T02:26:30;16.60;99.90
30134;DHT22;16946;49.984;10.672;2023-05-23T02:27:01;16.50;99.90
30134;DHT22;16946;49.984;10.672;2023-05-23T02:27:31;16.50;99.90
30134;DHT22;16946;49.984;10.672;2023-05-23T02:28:02;16.50;99.90
30134;DHT22;16946;49.984;10.672;2023-05-23T02:28:32;16.50;99.90
30134;DHT22;16946;49.984;10.672;2023-05-23T02:29:03;16.50;99.90
30134;DHT22;16946;49.984;10.672;2023-05-23T02:29:33;16.50;99.90
30134;DHT22;16946;49.984;10.672;2023-05-23T02:30:05;16.60;99.90
30134;DHT22;16946;49.984;10.672;2023-05-23T02:30:36;16.50;99.90
30134;DHT22;16946;49.984;10.672;2023-05-23T02:31:06;16.50;99.90
30134;DHT22;16946;49.984;10.672;2023-05-23T02:31:37;16.60;99.90
30134;DHT22;16946;49.984;10.672;2023-05-23T02:32:07;16.60;99.90
30134;DHT22;16946;49.984;10.672;2023-05-23T02:32:38;16.50;99.90
30134;DHT22;16946;49.984;10.672;2023-05-23T02:33:08;16.50;99.90
30134;DHT22;16946;49.984;10.672;2023-05-23T02:33:40;16.50;99.90
30134;DHT22;16946;49.984;10.672;2023-05-23T02:34:10;16.50;99.90
30134;DHT22;16946;49.984;10.672;2023-05-23T02:34:41;16.50;99.90
30134;DHT22;16946;49.984;10.672;2023-05-23T02:35:11;16.40;99.90
30134;DHT22;16946;49.984;10.672;2023-05-23T02:35:42;16.40;99.90
30134;DHT22;16946;49.984;10.672;2023-05-23T02:36:12;16.40;99.90
30134;DHT22;16946;49.984;10.672;2023-05-23T02:36:43;16.40;99.90
30134;DHT22;16946;49.984;10.672;2023-05-23T02:37:14;16.40;99.90
30134;DHT22;16946;49.984;10.672;2023-05-23T02:37:44;16.40;99.90
30134;DHT22;16946;49.984;10.672;2023-05-23T02:38:15;16.40;99.90
30134;DHT22;16946;49.984;10.672;2023-05-23T02:38:45;16.30;99.90
30134;DHT22;16946;49.984;10.672;2023-05-23T02:39:16;16.30;99.90
30134;DHT22;16946;49.984;10.672;2023-05-23T02:39:47;16.40;99.90
30134;DHT22;16946;49.984;10.672;2023-05-23T02:40:18;16.30;99.90
30134;DHT22;16946;49.984;10.672;2023-05-23T02:40:48;16.30;99.90
30134;DHT22;16946;49.984;10.672;2023-05-23T02:41:21;16.30;99.90
30134;DHT22;16946;49.984;10.672;2023-05-23T02:41:52;16.30;99.90
30134;DHT22;16946;49.984;10.672;2023-05-23T02:42:23;16.30;99.90
30134;DHT22;16946;49.984;10.672;2023-05-23T02:42:54;16.30;99.90
30134;DHT22;16946;49.984;10.672;2023-05-23T02:43:26;16.30;99.90
30134;DHT22;16946;49.984;10.672;2023-05-23T02:43:57;16.30;99.90
30134;DHT22;16946;49.984;10.672;2023-05-23T02:44:28;16.30;99.90
30134;DHT22;16946;49.984;10.672;2023-05-23T02:44:59;16.40;99.90
30134;DHT22;16946;49.984;10.672;2023-05-23T02:45:29;16.40;99.90
30134;DHT22;16946;49.984;10.672;2023-05-23T02:46:00;16.50;99.90
30134;DHT22;16946;49.984;10.672;2023-05-23T02:46:30;16.50;99.90
30134;DHT22;16946;49.984;10.672;2023-05-23T02:47:01;16.60;99.90
30134;DHT22;16946;49.984;10.672;2023-05-23T02:47:31;16.60;99.90
30134;DHT22;16946;49.984;10.672;2023-05-23T02:48:02;16.70;99.90
30134;DHT22;16946;49.984;10.672;2023-05-23T02:48:32;16.70;99.90
30134;DHT22;16946;49.984;10.672;2023-05-23T02:49:03;16.70;99.90
30134;DHT22;16946;49.984;10.672;2023-05-23T02:49:33;16.70;99.90
30134;DHT22;16946;49.984;10.672;2023-05-23T02:50:04;16.70;99.90
30134;DHT22;16946;49.984;10.672;2023-05-23T02:50:35;16.80;99.90
30134;DHT22;16946;49.984;10.672;2023-05-23T02:51:06;16.70;99.90
30134;DHT22;16946;49.984;10.672;2023-05-23T02:51:36;16.70;99.90
30134;DHT22;16946;49.984;10.672;2023-05-23T02:52:07;16.70;99.90
30134;DHT22;16946;49.984;10.672;2023-05-23T02:52:37;16.60;99.90
30134;DHT22;16946;49.984;10.672;2023-05-23T02:53:08;16.60;99.90
30134;DHT22;16946;49.984;10.672;2023-05-23T02:53:39;16.50;99.90
30134;DHT22;16946;49.984;10.672;2023-05-23T02:54:10;16.50;99.90
30134;DHT22;16946;49.984;10.672;2023-05-23T02:54:41;16.40;99.90
30134;DHT22;16946;49.984;10.672;2023-05-23T02:55:11;16.40;99.90
30134;DHT22;16946;49.984;10.672;2023-05-23T02:55:42;16.40;99.90
30134;DHT22;16946;49.984;10.672;2023-05-23T02:56:12;16.30;99.90
30134;DHT22;16946;49.984;10.672;2023-05-23T02:56:45;16.30;99.90
30134;DHT22;16946;49.984;10.672;2023-05-23T02:57:15;16.30;99.90
30134;DHT22;16946;49.984;10.672;2023-05-23T02:57:46;16.20;99.90
30134;DHT22;16946;49.984;10.672;2023-05-23T02:58:17;16.20;99.90
30134;DHT22;16946;49.984;10.672;2023-05-23T02:58:48;16.20;99.90
30134;DHT22;16946;49.984;10.672;2023-05-23T02:59:18;16.10;99.90
30134;DHT22;16946;49.984;10.672;2023-05-23T02:59:49;16.10;99.90
30134;DHT22;16946;49.984;10.672;2023-05-23T03:00:20;16.10;99.90
30134;DHT22;16946;49.984;10.672;2023-05-23T03:00:50;16.10;99.90
30134;DHT22;16946;49.984;10.672;2023-05-23T03:01:21;16.10;99.90
30134;DHT22;16946;49.984;10.672;2023-05-23T03:01:52;16.10;99.90
30134;DHT22;16946;49.984;10.672;2023-05-23T03:02:23;16.10;99.90
30134;DHT22;16946;49.984;10.672;2023-05-23T03:02:53;16.00;99.90
30134;DHT22;16946;49.984;10.672;2023-05-23T03:03:24;16.10;99.90
30134;DHT22;16946;49.984;10.672;2023-05-23T03:03:54;16.10;99.90
30134;DHT22;16946;49.984;10.672;2023-05-23T03:04:25;16.20;99.90
30134;DHT22;16946;49.984;10.672;2023-05-23T03:04:56;16.20;99.90
30134;DHT22;16946;49.984;10.672;2023-05-23T03:05:27;16.20;99.90
30134;DHT22;16946;49.984;10.672;2023-05-23T03:05:57;16.20;99.90
30134;DHT22;16946;49.984;10.672;2023-05-23T03:06:28;16.20;99.90
30134;DHT22;16946;49.984;10.672;2023-05-23T03:07:01;16.30;99.90
30134;DHT22;16946;49.984;10.672;2023-05-23T03:07:33;16.30;99.90
30134;DHT22;16946;49.984;10.672;2023-05-23T03:08:03;16.30;99.90
30134;DHT22;16946;49.984;10.672;2023-05-23T03:08:35;16.30;99.90
30134;DHT22;16946;49.984;10.672;2023-05-23T03:09:05;16.40;99.90
30134;DHT22;16946;49.984;10.672;2023-05-23T03:09:37;16.50;99.90
30134;DHT22;16946;49.984;10.672;2023-05-23T03:10:08;16.40;99.90
30134;DHT22;16946;49.984;10.672;2023-05-23T03:10:38;16.50;99.90
30134;DHT22;16946;49.984;10.672;2023-05-23T03:11:09;16.50;99.90
30134;DHT22;16946;49.984;10.672;2023-05-23T03:11:39;16.50;99.90
30134;DHT22;16946;49.984;10.672;2023-05-23T03:12:10;16.50;99.90
30134;DHT22;16946;49.984;10.672;2023-05-23T03:12:40;16.40;99.90
30134;DHT22;16946;49.984;10.672;2023-05-23T03:13:11;16.40;99.90
30134;DHT22;16946;49.984;10.672;2023-05-23T03:13:42;16.50;99.90
30134;DHT22;16946;49.984;10.672;2023-05-23T03:14:12;16.40;99.90
30134;DHT22;16946;49.984;10.672;2023-05-23T03:14:43;16.50;99.90
30134;DHT22;16946;49.984;10.672;2023-05-23T03:15:13;16.50;99.90
30134;DHT22;16946;49.984;10.672;2023-05-23T03:15:44;16.50;99.90
30134;DHT22;16946;49.984;10.672;2023-05-23T03:16:15;16.50;99.90
30134;DHT22;16946;49.984;10.672;2023-05-23T03:16:46;16.50;99.90
30134;DHT22;16946;49.984;10.672;2023-05-23T03:17:16;16.40;99.90
30134;DHT22;16946;49.984;10.672;2023-05-23T03:17:47;16.40;99.90
30134;DHT22;16946;49.984;10.672;2023-05-23T03:18:17;16.30;99.90
30134;DHT22;16946;49.984;10.672;2023-05-23T03:18:48;16.30;99.90
30134;DHT22;16946;49.984;10.672;2023-05-23T03:19:18;16.30;99.90
30134;DHT22;16946;49.984;10.672;2023-05-23T03:19:49;16.30;99.90
30134;DHT22;16946;49.984;10.672;2023-05-23T03:20:19;16.20;99.90
30134;DHT22;16946;49.984;10.672;2023-05-23T03:20:50;16.30;99.90
30134;DHT22;16946;49.984;10.672;2023-05-23T03:21:20;16.20;99.90
30134;DHT22;16946;49.984;10.672;2023-05-23T03:21:51;16.20;99.90
30134;DHT22;16946;49.984;10.672;2023-05-23T03:22:21;16.20;99.90
30134;DHT22;16946;49.984;10.672;2023-05-23T03:22:52;16.20;99.90
30134;DHT22;16946;49.984;10.672;2023-05-23T03:23:22;16.20;99.90